sensor_id;sensor_type;location;lat;lon;timestamp;temperature;humidity
64858;SHT30;51335;51.148;6.950;2023-04-03T00:00:20;-0.46;97.56
64858;SHT30;51335;51.148;6.950;2023-04-03T00:00:50;-0.35;97.62
64858;SHT30;51335;51.148;6.950;2023-04-03T00:01:21;-0.39;97.41
64858;SHT30;51335;51.148;6.950;2023-04-03T00:01:51;-0.42;97.42
64858;SHT30;51335;51.148;6.950;2023-04-03T00:02:21;-0.46;97.38
64858;SHT30;51335;51.148;6.950;2023-04-03T00:02:52;-0.40;97.51
64858;SHT30;51335;51.148;6.950;2023-04-03T00:03:22;-0.32;97.61
64858;SHT30;51335;51.148;6.950;2023-04-03T00:03:52;-0.30;97.62
64858;SHT30;51335;51.148;6.950;2023-04-03T00:04:22;-0.28;97.53
64858;SHT30;51335;51.148;6.950;2023-04-03T00:04:53;-0.28;97.47
64858;SHT30;51335;51.148;6.950;2023-04-03T00:05:23;-0.23;97.44
64858;SHT30;51335;51.148;6.950;2023-04-03T00:05:54;-0.22;97.36
64858;SHT30;51335;51.148;6.950;2023-04-03T00:06:24;-0.21;97.27
64858;SHT30;51335;51.148;6.950;2023-04-03T00:06:54;-0.22;97.19
64858;SHT30;51335;51.148;6.950;2023-04-03T00:07:25;-0.23;97.19
64858;SHT30;51335;51.148;6.950;2023-04-03T00:07:55;-0.25;97.19
64858;SHT30;51335;51.148;6.950;2023-04-03T00:08:25;-0.23;97.26
64858;SHT30;51335;51.148;6.950;2023-04-03T00:08:56;-0.26;97.20
64858;SHT30;51335;51.148;6.950;2023-04-03T00:09:26;-0.28;97.19
64858;SHT30;51335;51.148;6.950;2023-04-03T00:09:56;-0.22;97.26
64858;SHT30;51335;51.148;6.950;2023-04-03T00:10:26;-0.23;97.24
64858;SHT30;51335;51.148;6.950;2023-04-03T00:10:57;-0.23;97.12
64858;SHT30;51335;51.148;6.950;2023-04-03T00:11:27;-0.19;97.11
64858;SHT30;51335;51.148;6.950;2023-04-03T00:11:57;-0.11;97.05
64858;SHT30;51335;51.148;6.950;2023-04-03T00:12:28;-0.09;96.87
64858;SHT30;51335;51.148;6.950;2023-04-03T00:12:58;-0.14;96.76
64858;SHT30;51335;51.148;6.950;2023-04-03T00:13:28;-0.19;96.70
64858;SHT30;51335;51.148;6.950;2023-04-03T00:13:59;-0.16;96.80
64858;SHT30;51335;51.148;6.950;2023-04-03T00:14:29;-0.23;96.71
64858;SHT30;51335;51.148;6.950;2023-04-03T00:14:59;-0.25;96.76
64858;SHT30;51335;51.148;6.950;2023-04-03T00:15:30;-0.29;96.81
64858;SHT30;51335;51.148;6.950;2023-04-03T00:16:01;-0.35;96.71
64858;SHT30;51335;51.148;6.950;2023-04-03T00:16:31;-0.35;96.77
64858;SHT30;51335;51.148;6.950;2023-04-03T00:17:01;-0.42;96.81
64858;SHT30;51335;51.148;6.950;2023-04-03T00:17:31;-0.49;96.79
64858;SHT30;51335;51.148;6.950;2023-04-03T00:18:04;-0.52;96.83
64858;SHT30;51335;51.148;6.950;2023-04-03T00:18:35;-0.57;96.88
64858;SHT30;51335;51.148;6.950;2023-04-03T00:19:05;-0.60;96.94
64858;SHT30;51335;51.148;6.950;2023-04-03T00:19:35;-0.63;97.18
64858;SHT30;51335;51.148;6.950;2023-04-03T00:20:06;-0.63;97.32
64858;SHT30;51335;51.148;6.950;2023-04-03T00:20:37;-0.62;97.44
64858;SHT30;51335;51.148;6.950;2023-04-03T00:21:09;-0.59;97.63
64858;SHT30;51335;51.148;6.950;2023-04-03T00:21:39;-0.55;97.78
64858;SHT30;51335;51.148;6.950;2023-04-03T00:22:10;-0.53;97.83
64858;SHT30;51335;51.148;6.950;2023-04-03T00:22:40;-0.57;97.86
64858;SHT30;51335;51.148;6.950;2023-04-03T00:23:10;-0.55;97.86
64858;SHT30;51335;51.148;6.950;2023-04-03T00:23:41;-0.53;97.90
64858;SHT30;51335;51.148;6.950;2023-04-03T00:24:11;-0.52;97.83
64858;SHT30;51335;51.148;6.950;2023-04-03T00:24:41;-0.53;97.80
64858;SHT30;51335;51.148;6.950;2023-04-03T00:25:12;-0.59;97.83
64858;SHT30;51335;51.148;6.950;2023-04-03T00:25:42;-0.59;97.85
64858;SHT30;51335;51.148;6.950;2023-04-03T00:26:12;-0.53;97.92
64858;SHT30;51335;51.148;6.950;2023-04-03T00:26:43;-0.50;97.90
64858;SHT30;51335;51.148;6.950;2023-04-03T00:27:13;-0.52;97.79
64858;SHT30;51335;51.148;6.950;2023-04-03T00:27:43;-0.55;97.77
64858;SHT30;51335;51.148;6.950;2023-04-03T00:28:13;-0.56;97.80
64858;SHT30;51335;51.148;6.950;2023-04-03T00:28:44;-0.57;97.83
64858;SHT30;51335;51.148;6.950;2023-04-03T00:29:14;-0.60;97.74
64858;SHT30;51335;51.148;6.950;2023-04-03T00:29:44;-0.63;97.69
64858;SHT30;51335;51.148;6.950;2023-04-03T00:30:16;-0.60;97.76
64858;SHT30;51335;51.148;6.950;2023-04-03T00:30:51;-0.63;97.87
64858;SHT30;51335;51.148;6.950;2023-04-03T00:31:21;-0.60;97.90
64858;SHT30;51335;51.148;6.950;2023-04-03T00:31:52;-0.57;98.00
64858;SHT30;51335;51.148;6.950;2023-04-03T00:32:22;-0.57;97.92
64858;SHT30;51335;51.148;6.950;2023-04-03T00:32:53;-0.62;97.88
64858;SHT30;51335;51.148;6.950;2023-04-03T00:33:23;-0.66;97.81
64858;SHT30;51335;51.148;6.950;2023-04-03T00:33:53;-0.67;97.72
64858;SHT30;51335;51.148;6.950;2023-04-03T00:34:25;-0.69;97.84
64858;SHT30;51335;51.148;6.950;2023-04-03T00:34:55;-0.67;97.85
64858;SHT30;51335;51.148;6.950;2023-04-03T00:35:25;-0.70;97.81
64858;SHT30;51335;51.148;6.950;2023-04-03T00:35:56;-0.70;97.74
64858;SHT30;51335;51.148;6.950;2023-04-03T00:36:26;-0.70;97.81
64858;SHT30;51335;51.148;6.950;2023-04-03T00:36:57;-0.72;97.90
64858;SHT30;51335;51.148;6.950;2023-04-03T00:37:27;-0.73;97.96
64858;SHT30;51335;51.148;6.950;2023-04-03T00:37:58;-0.74;98.00
64858;SHT30;51335;51.148;6.950;2023-04-03T00:38:28;-0.72;98.07
64858;SHT30;51335;51.148;6.950;2023-04-03T00:38:58;-0.72;98.12
64858;SHT30;51335;51.148;6.950;2023-04-03T00:39:28;-0.76;98.10
64858;SHT30;51335;51.148;6.950;2023-04-03T00:39:59;-0.76;98.19
64858;SHT30;51335;51.148;6.950;2023-04-03T00:40:35;-0.77;98.23
64858;SHT30;51335;51.148;6.950;2023-04-03T00:41:06;-0.76;98.27
64858;SHT30;51335;51.148;6.950;2023-04-03T00:41:37;-0.77;98.29
64858;SHT30;51335;51.148;6.950;2023-04-03T00:42:07;-0.77;98.35
64858;SHT30;51335;51.148;6.950;2023-04-03T00:42:37;-0.80;98.35
64858;SHT30;51335;51.148;6.950;2023-04-03T00:43:17;-0.80;98.46
64858;SHT30;51335;51.148;6.950;2023-04-03T00:43:47;-0.83;98.48
64858;SHT30;51335;51.148;6.950;2023-04-03T00:45:44;-0.86;98.51
64858;SHT30;51335;51.148;6.950;2023-04-03T00:46:15;-0.80;98.57
64858;SHT30;51335;51.148;6.950;2023-04-03T00:46:45;-0.81;98.61
64858;SHT30;51335;51.148;6.950;2023-04-03T00:47:17;-0.79;98.64
64858;SHT30;51335;51.148;6.950;2023-04-03T00:47:47;-0.76;98.62
64858;SHT30;51335;51.148;6.950;2023-04-03T00:49:00;-0.76;98.57
64858;SHT30;51335;51.148;6.950;2023-04-03T00:49:31;-0.77;98.59
64858;SHT30;51335;51.148;6.950;2023-04-03T00:50:01;-0.79;98.69
64858;SHT30;51335;51.148;6.950;2023-04-03T00:50:33;-0.77;98.60
64858;SHT30;51335;51.148;6.950;2023-04-03T00:51:06;-0.76;98.62
64858;SHT30;51335;51.148;6.950;2023-04-03T00:51:37;-0.80;98.71
64858;SHT30;51335;51.148;6.950;2023-04-03T00:52:16;-0.79;98.78
64858;SHT30;51335;51.148;6.950;2023-04-03T00:52:47;-0.70;98.82
64858;SHT30;51335;51.148;6.950;2023-04-03T00:53:27;-0.74;98.64
64858;SHT30;51335;51.148;6.950;2023-04-03T00:54:01;-0.77;98.62
64858;SHT30;51335;51.148;6.950;2023-04-03T00:54:32;-0.73;98.60
64858;SHT30;51335;51.148;6.950;2023-04-03T00:55:07;-0.74;98.57
64858;SHT30;51335;51.148;6.950;2023-04-03T00:55:38;-0.77;98.57
64858;SHT30;51335;51.148;6.950;2023-04-03T00:56:11;-0.77;98.59
64858;SHT30;51335;51.148;6.950;2023-04-03T00:56:43;-0.76;98.52
64858;SHT30;51335;51.148;6.950;2023-04-03T00:57:14;-0.76;98.53
64858;SHT30;51335;51.148;6.950;2023-04-03T00:57:46;-0.79;98.46
64858;SHT30;51335;51.148;6.950;2023-04-03T00:58:19;-0.80;98.49
64858;SHT30;51335;51.148;6.950;2023-04-03T00:59:02;-0.80;98.50
64858;SHT30;51335;51.148;6.950;2023-04-03T00:59:38;-0.80;98.49
64858;SHT30;51335;51.148;6.950;2023-04-03T01:00:12;-0.84;98.44
64858;SHT30;51335;51.148;6.950;2023-04-03T01:00:48;-0.88;98.44
64858;SHT30;51335;51.148;6.950;2023-04-03T01:01:25;-0.88;98.45
64858;SHT30;51335;51.148;6.950;2023-04-03T01:01:56;-0.91;98.51
64858;SHT30;51335;51.148;6.950;2023-04-03T01:02:27;-0.91;98.49
64858;SHT30;51335;51.148;6.950;2023-04-03T01:02:57;-0.94;98.47
64858;SHT30;51335;51.148;6.950;2023-04-03T01:03:28;-0.95;98.54
64858;SHT30;51335;51.148;6.950;2023-04-03T01:03:59;-0.94;98.53
64858;SHT30;51335;51.148;6.950;2023-04-03T01:05:02;-0.94;98.51
64858;SHT30;51335;51.148;6.950;2023-04-03T01:05:33;-0.93;98.50
64858;SHT30;51335;51.148;6.950;2023-04-03T01:06:03;-0.91;98.46
64858;SHT30;51335;51.148;6.950;2023-04-03T01:06:36;-0.88;98.39
64858;SHT30;51335;51.148;6.950;2023-04-03T01:07:10;-0.87;98.47
64858;SHT30;51335;51.148;6.950;2023-04-03T01:07:41;-0.86;98.41
64858;SHT30;51335;51.148;6.950;2023-04-03T01:08:11;-0.81;98.38
64858;SHT30;51335;51.148;6.950;2023-04-03T01:08:41;-0.80;98.33
64858;SHT30;51335;51.148;6.950;2023-04-03T01:09:12;-0.81;98.26
64858;SHT30;51335;51.148;6.950;2023-04-03T01:09:42;-0.79;98.18
64858;SHT30;51335;51.148;6.950;2023-04-03T01:10:15;-0.76;98.08
64858;SHT30;51335;51.148;6.950;2023-04-03T01:10:46;-0.77;97.99
64858;SHT30;51335;51.148;6.950;2023-04-03T01:11:16;-0.74;97.87
64858;SHT30;51335;51.148;6.950;2023-04-03T01:11:46;-0.76;97.86
64858;SHT30;51335;51.148;6.950;2023-04-03T01:12:22;-0.74;97.76
64858;SHT30;51335;51.148;6.950;2023-04-03T01:12:52;-0.73;97.69
64858;SHT30;51335;51.148;6.950;2023-04-03T01:13:29;-0.79;97.65
64858;SHT30;51335;51.148;6.950;2023-04-03T01:13:59;-0.80;97.76
64858;SHT30;51335;51.148;6.950;2023-04-03T01:14:30;-0.83;97.82
64858;SHT30;51335;51.148;6.950;2023-04-03T01:15:34;-0.93;97.85
64858;SHT30;51335;51.148;6.950;2023-04-03T01:16:05;-0.93;98.19
64858;SHT30;51335;51.148;6.950;2023-04-03T01:16:35;-0.95;98.33
64858;SHT30;51335;51.148;6.950;2023-04-03T01:18:01;-0.97;98.37
64858;SHT30;51335;51.148;6.950;2023-04-03T01:18:32;-0.95;98.44
64858;SHT30;51335;51.148;6.950;2023-04-03T01:19:06;-0.98;98.37
64858;SHT30;51335;51.148;6.950;2023-04-03T01:19:39;-1.00;98.43
64858;SHT30;51335;51.148;6.950;2023-04-03T01:24:24;-1.08;98.93
64858;SHT30;51335;51.148;6.950;2023-04-03T01:24:57;-1.11;98.88
64858;SHT30;51335;51.148;6.950;2023-04-03T01:25:27;-1.11;98.87
64858;SHT30;51335;51.148;6.950;2023-04-03T01:25:58;-1.12;98.92
64858;SHT30;51335;51.148;6.950;2023-04-03T01:26:28;-1.12;98.98
64858;SHT30;51335;51.148;6.950;2023-04-03T01:27:01;-1.11;98.98
64858;SHT30;51335;51.148;6.950;2023-04-03T01:27:32;-1.15;98.96
64858;SHT30;51335;51.148;6.950;2023-04-03T01:28:04;-1.11;98.96
64858;SHT30;51335;51.148;6.950;2023-04-03T01:28:35;-1.12;99.14
64858;SHT30;51335;51.148;6.950;2023-04-03T01:29:06;-1.12;99.04
64858;SHT30;51335;51.148;6.950;2023-04-03T01:29:36;-1.14;99.01
64858;SHT30;51335;51.148;6.950;2023-04-03T01:30:07;-1.15;99.03
64858;SHT30;51335;51.148;6.950;2023-04-03T01:31:45;-1.21;98.92
64858;SHT30;51335;51.148;6.950;2023-04-03T01:32:16;-1.24;98.82
64858;SHT30;51335;51.148;6.950;2023-04-03T01:32:46;-1.28;98.87
64858;SHT30;51335;51.148;6.950;2023-04-03T01:33:16;-1.30;98.84
64858;SHT30;51335;51.148;6.950;2023-04-03T01:33:47;-1.32;98.88
64858;SHT30;51335;51.148;6.950;2023-04-03T01:34:18;-1.34;98.94
64858;SHT30;51335;51.148;6.950;2023-04-03T01:34:48;-1.32;98.98
64858;SHT30;51335;51.148;6.950;2023-04-03T01:35:18;-1.32;99.16
64858;SHT30;51335;51.148;6.950;2023-04-03T01:35:49;-1.27;99.28
64858;SHT30;51335;51.148;6.950;2023-04-03T01:36:25;-1.28;99.33
64858;SHT30;51335;51.148;6.950;2023-04-03T01:36:56;-1.27;99.24
64858;SHT30;51335;51.148;6.950;2023-04-03T01:37:26;-1.28;99.26
64858;SHT30;51335;51.148;6.950;2023-04-03T01:37:56;-1.31;99.23
64858;SHT30;51335;51.148;6.950;2023-04-03T01:38:26;-1.31;99.20
64858;SHT30;51335;51.148;6.950;2023-04-03T01:38:58;-1.34;99.23
64858;SHT30;51335;51.148;6.950;2023-04-03T01:39:29;-1.34;99.19
64858;SHT30;51335;51.148;6.950;2023-04-03T01:39:59;-1.35;99.29
64858;SHT30;51335;51.148;6.950;2023-04-03T01:40:29;-1.35;99.29
64858;SHT30;51335;51.148;6.950;2023-04-03T01:40:59;-1.36;99.35
64858;SHT30;51335;51.148;6.950;2023-04-03T01:41:30;-1.36;99.49
64858;SHT30;51335;51.148;6.950;2023-04-03T01:42:00;-1.35;99.54
64858;SHT30;51335;51.148;6.950;2023-04-03T01:42:30;-1.32;99.59
64858;SHT30;51335;51.148;6.950;2023-04-03T01:43:01;-1.31;99.55
64858;SHT30;51335;51.148;6.950;2023-04-03T01:43:31;-1.31;99.55
64858;SHT30;51335;51.148;6.950;2023-04-03T01:44:01;-1.32;99.63
64858;SHT30;51335;51.148;6.950;2023-04-03T01:44:31;-1.32;99.60
64858;SHT30;51335;51.148;6.950;2023-04-03T01:45:02;-1.32;99.62
64858;SHT30;51335;51.148;6.950;2023-04-03T01:45:33;-1.32;99.65
64858;SHT30;51335;51.148;6.950;2023-04-03T01:46:03;-1.31;99.74
64858;SHT30;51335;51.148;6.950;2023-04-03T01:46:33;-1.32;99.85
64858;SHT30;51335;51.148;6.950;2023-04-03T01:47:06;-1.25;99.80
64858;SHT30;51335;51.148;6.950;2023-04-03T01:47:36;-1.22;99.80
64858;SHT30;51335;51.148;6.950;2023-04-03T01:48:06;-1.18;99.82
64858;SHT30;51335;51.148;6.950;2023-04-03T01:48:37;-1.15;99.80
64858;SHT30;51335;51.148;6.950;2023-04-03T01:49:07;-1.18;99.71
64858;SHT30;51335;51.148;6.950;2023-04-03T01:49:37;-1.18;99.56
64858;SHT30;51335;51.148;6.950;2023-04-03T01:50:08;-1.18;99.52
64858;SHT30;51335;51.148;6.950;2023-04-03T01:50:39;-1.19;99.56
64858;SHT30;51335;51.148;6.950;2023-04-03T01:51:09;-1.21;99.48
64858;SHT30;51335;51.148;6.950;2023-04-03T01:51:39;-1.25;99.43
64858;SHT30;51335;51.148;6.950;2023-04-03T01:52:09;-1.25;99.42
64858;SHT30;51335;51.148;6.950;2023-04-03T01:52:40;-1.27;99.37
64858;SHT30;51335;51.148;6.950;2023-04-03T01:53:10;-1.28;99.37
64858;SHT30;51335;51.148;6.950;2023-04-03T01:53:40;-1.30;99.39
64858;SHT30;51335;51.148;6.950;2023-04-03T01:54:11;-1.31;99.44
64858;SHT30;51335;51.148;6.950;2023-04-03T01:54:41;-1.32;99.45
64858;SHT30;51335;51.148;6.950;2023-04-03T01:55:11;-1.31;99.49
64858;SHT30;51335;51.148;6.950;2023-04-03T01:55:41;-1.32;99.44
64858;SHT30;51335;51.148;6.950;2023-04-03T01:56:12;-1.35;99.39
64858;SHT30;51335;51.148;6.950;2023-04-03T01:56:42;-1.38;99.36
64858;SHT30;51335;51.148;6.950;2023-04-03T01:57:12;-1.39;99.38
64858;SHT30;51335;51.148;6.950;2023-04-03T01:57:42;-1.41;99.42
64858;SHT30;51335;51.148;6.950;2023-04-03T01:58:13;-1.41;99.42
64858;SHT30;51335;51.148;6.950;2023-04-03T01:58:43;-1.45;99.40
64858;SHT30;51335;51.148;6.950;2023-04-03T01:59:13;-1.43;99.40
64858;SHT30;51335;51.148;6.950;2023-04-03T01:59:43;-1.45;99.45
64858;SHT30;51335;51.148;6.950;2023-04-03T02:00:14;-1.46;99.44
64858;SHT30;51335;51.148;6.950;2023-04-03T02:00:44;-1.51;99.39
64858;SHT30;51335;51.148;6.950;2023-04-03T02:01:15;-1.51;99.44
64858;SHT30;51335;51.148;6.950;2023-04-03T02:01:45;-1.51;99.47
64858;SHT30;51335;51.148;6.950;2023-04-03T02:02:15;-1.51;99.54
64858;SHT30;51335;51.148;6.950;2023-04-03T02:02:45;-1.53;99.59
64858;SHT30;51335;51.148;6.950;2023-04-03T02:03:16;-1.52;99.67
64858;SHT30;51335;51.148;6.950;2023-04-03T02:03:46;-1.56;99.58
64858;SHT30;51335;51.148;6.950;2023-04-03T02:04:16;-1.56;99.60
64858;SHT30;51335;51.148;6.950;2023-04-03T02:04:46;-1.55;99.76
64858;SHT30;51335;51.148;6.950;2023-04-03T02:05:17;-1.56;99.83
64858;SHT30;51335;51.148;6.950;2023-04-03T02:05:47;-1.53;99.91
64858;SHT30;51335;51.148;6.950;2023-04-03T02:06:17;-1.51;99.99
64858;SHT30;51335;51.148;6.950;2023-04-03T02:06:48;-1.51;99.99
64858;SHT30;51335;51.148;6.950;2023-04-03T02:07:18;-1.51;99.99
64858;SHT30;51335;51.148;6.950;2023-04-03T02:07:48;-1.49;99.99
64858;SHT30;51335;51.148;6.950;2023-04-03T02:08:18;-1.48;99.99
64858;SHT30;51335;51.148;6.950;2023-04-03T02:08:49;-1.49;99.99
64858;SHT30;51335;51.148;6.950;2023-04-03T02:09:19;-1.45;99.99
64858;SHT30;51335;51.148;6.950;2023-04-03T02:09:49;-1.46;99.99
64858;SHT30;51335;51.148;6.950;2023-04-03T02:10:20;-1.48;99.99
64858;SHT30;51335;51.148;6.950;2023-04-03T02:10:50;-1.49;99.99
64858;SHT30;51335;51.148;6.950;2023-04-03T02:11:21;-1.46;99.99
64858;SHT30;51335;51.148;6.950;2023-04-03T02:11:52;-1.49;99.99
64858;SHT30;51335;51.148;6.950;2023-04-03T02:12:22;-1.49;99.99
64858;SHT30;51335;51.148;6.950;2023-04-03T02:12:52;-1.48;99.99
64858;SHT30;51335;51.148;6.950;2023-04-03T02:13:23;-1.46;99.99
64858;SHT30;51335;51.148;6.950;2023-04-03T02:13:53;-1.46;99.99
64858;SHT30;51335;51.148;6.950;2023-04-03T02:14:23;-1.46;99.99
64858;SHT30;51335;51.148;6.950;2023-04-03T02:14:54;-1.43;99.99
64858;SHT30;51335;51.148;6.950;2023-04-03T02:15:24;-1.43;99.99
64858;SHT30;51335;51.148;6.950;2023-04-03T02:15:54;-1.42;99.99
64858;SHT30;51335;51.148;6.950;2023-04-03T02:16:24;-1.43;99.99
64858;SHT30;51335;51.148;6.950;2023-04-03T02:16:55;-1.41;99.99
64858;SHT30;51335;51.148;6.950;2023-04-03T02:17:25;-1.42;99.99
64858;SHT30;51335;51.148;6.950;2023-04-03T02:17:55;-1.38;99.99
64858;SHT30;51335;51.148;6.950;2023-04-03T02:18:25;-1.38;99.99
64858;SHT30;51335;51.148;6.950;2023-04-03T02:18:56;-1.38;99.99
64858;SHT30;51335;51.148;6.950;2023-04-03T02:19:26;-1.41;99.99
64858;SHT30;51335;51.148;6.950;2023-04-03T02:19:57;-1.41;99.99
64858;SHT30;51335;51.148;6.950;2023-04-03T02:20:27;-1.39;99.99
64858;SHT30;51335;51.148;6.950;2023-04-03T02:20:57;-1.41;99.99
64858;SHT30;51335;51.148;6.950;2023-04-03T02:21:27;-1.41;99.99
64858;SHT30;51335;51.148;6.950;2023-04-03T02:21:58;-1.38;99.99
64858;SHT30;51335;51.148;6.950;2023-04-03T02:22:28;-1.31;99.99
64858;SHT30;51335;51.148;6.950;2023-04-03T02:22:59;-1.32;99.99
64858;SHT30;51335;51.148;6.950;2023-04-03T02:23:29;-1.22;99.99
64858;SHT30;51335;51.148;6.950;2023-04-03T02:23:59;-1.18;99.99
64858;SHT30;51335;51.148;6.950;2023-04-03T02:24:30;-1.15;99.99
64858;SHT30;51335;51.148;6.950;2023-04-03T02:25:00;-1.19;99.99
64858;SHT30;51335;51.148;6.950;2023-04-03T02:25:31;-1.19;99.99
64858;SHT30;51335;51.148;6.950;2023-04-03T02:26:07;-1.18;99.99
64858;SHT30;51335;51.148;6.950;2023-04-03T02:26:38;-1.21;99.99
64858;SHT30;51335;51.148;6.950;2023-04-03T02:27:08;-1.22;99.99
64858;SHT30;51335;51.148;6.950;2023-04-03T02:27:39;-1.24;99.99
64858;SHT30;51335;51.148;6.950;2023-04-03T02:28:09;-1.25;99.99
64858;SHT30;51335;51.148;6.950;2023-04-03T02:28:39;-1.24;99.99
64858;SHT30;51335;51.148;6.950;2023-04-03T02:29:10;-1.28;99.99
64858;SHT30;51335;51.148;6.950;2023-04-03T02:29:40;-1.28;99.99
64858;SHT30;51335;51.148;6.950;2023-04-03T02:30:10;-1.21;99.99
64858;SHT30;51335;51.148;6.950;2023-04-03T02:30:41;-1.22;99.99
64858;SHT30;51335;51.148;6.950;2023-04-03T02:31:11;-1.27;99.99
64858;SHT30;51335;51.148;6.950;2023-04-03T02:31:41;-1.31;99.98
64858;SHT30;51335;51.148;6.950;2023-04-03T02:32:12;-1.28;99.98
64858;SHT30;51335;51.148;6.950;2023-04-03T02:32:43;-1.30;99.90
64858;SHT30;51335;51.148;6.950;2023-04-03T02:33:13;-1.30;99.99
64858;SHT30;51335;51.148;6.950;2023-04-03T02:33:43;-1.28;99.99
64858;SHT30;51335;51.148;6.950;2023-04-03T02:34:14;-1.28;99.99
64858;SHT30;51335;51.148;6.950;2023-04-03T02:34:44;-1.27;99.99
64858;SHT30;51335;51.148;6.950;2023-04-03T02:35:14;-1.27;99.99
64858;SHT30;51335;51.148;6.950;2023-04-03T02:35:44;-1.28;99.99
64858;SHT30;51335;51.148;6.950;2023-04-03T02:36:15;-1.32;99.99
64858;SHT30;51335;51.148;6.950;2023-04-03T02:36:45;-1.31;99.99
64858;SHT30;51335;51.148;6.950;2023-04-03T02:37:16;-1.31;99.99
64858;SHT30;51335;51.148;6.950;2023-04-03T02:37:46;-1.32;99.99
64858;SHT30;51335;51.148;6.950;2023-04-03T02:38:16;-1.34;99.99
64858;SHT30;51335;51.148;6.950;2023-04-03T02:38:46;-1.27;99.99
64858;SHT30;51335;51.148;6.950;2023-04-03T02:39:17;-1.31;99.99
64858;SHT30;51335;51.148;6.950;2023-04-03T02:39:47;-1.30;99.99
64858;SHT30;51335;51.148;6.950;2023-04-03T02:40:17;-1.32;99.99
64858;SHT30;51335;51.148;6.950;2023-04-03T02:40:48;-1.31;99.99
64858;SHT30;51335;51.148;6.950;2023-04-03T02:41:18;-1.30;99.99
64858;SHT30;51335;51.148;6.950;2023-04-03T02:41:48;-1.32;99.99
64858;SHT30;51335;51.148;6.950;2023-04-03T02:42:19;-1.34;99.99
64858;SHT30;51335;51.148;6.950;2023-04-03T02:42:49;-1.36;99.99
64858;SHT30;51335;51.148;6.950;2023-04-03T02:43:19;-1.32;99.99
64858;SHT30;51335;51.148;6.950;2023-04-03T02:43:49;-1.35;99.99
64858;SHT30;51335;51.148;6.950;2023-04-03T02:44:20;-1.32;99.99
64858;SHT30;51335;51.148;6.950;2023-04-03T02:44:50;-1.32;99.99
64858;SHT30;51335;51.148;6.950;2023-04-03T02:45:20;-1.24;99.99
64858;SHT30;51335;51.148;6.950;2023-04-03T02:45:50;-1.24;99.99
64858;SHT30;51335;51.148;6.950;2023-04-03T02:46:21;-1.24;99.99
64858;SHT30;51335;51.148;6.950;2023-04-03T02:46:51;-1.22;99.99
64858;SHT30;51335;51.148;6.950;2023-04-03T02:47:21;-1.18;99.99
64858;SHT30;51335;51.148;6.950;2023-04-03T02:47:51;-1.22;99.99
64858;SHT30;51335;51.148;6.950;2023-04-03T02:48:22;-1.15;99.99
64858;SHT30;51335;51.148;6.950;2023-04-03T02:48:53;-1.12;99.98
64858;SHT30;51335;51.148;6.950;2023-04-03T02:49:23;-1.12;99.93
64858;SHT30;51335;51.148;6.950;2023-04-03T02:49:53;-0.97;99.74
64858;SHT30;51335;51.148;6.950;2023-04-03T02:50:24;-0.95;99.46
64858;SHT30;51335;51.148;6.950;2023-04-03T02:50:54;-0.91;99.41
64858;SHT30;51335;51.148;6.950;2023-04-03T02:51:24;-0.83;99.10
64858;SHT30;51335;51.148;6.950;2023-04-03T02:51:54;-0.84;98.91
64858;SHT30;51335;51.148;6.950;2023-04-03T02:52:25;-0.87;98.90
64858;SHT30;51335;51.148;6.950;2023-04-03T02:52:55;-0.84;98.93
64858;SHT30;51335;51.148;6.950;2023-04-03T02:53:25;-0.83;98.86
64858;SHT30;51335;51.148;6.950;2023-04-03T02:53:55;-0.76;98.55
64858;SHT30;51335;51.148;6.950;2023-04-03T02:54:26;-0.69;98.34
64858;SHT30;51335;51.148;6.950;2023-04-03T02:54:56;-0.62;97.96
64858;SHT30;51335;51.148;6.950;2023-04-03T02:55:26;-0.63;97.75
64858;SHT30;51335;51.148;6.950;2023-04-03T02:55:56;-0.57;97.36
64858;SHT30;51335;51.148;6.950;2023-04-03T02:56:27;-0.63;97.49
64858;SHT30;51335;51.148;6.950;2023-04-03T02:56:57;-0.60;97.36
64858;SHT30;51335;51.148;6.950;2023-04-03T02:57:27;-0.59;97.26
64858;SHT30;51335;51.148;6.950;2023-04-03T02:57:58;-0.59;97.17
64858;SHT30;51335;51.148;6.950;2023-04-03T02:58:28;-0.57;97.05
64858;SHT30;51335;51.148;6.950;2023-04-03T02:58:58;-0.57;97.01
64858;SHT30;51335;51.148;6.950;2023-04-03T02:59:28;-0.56;96.92
64858;SHT30;51335;51.148;6.950;2023-04-03T02:59:59;-0.53;96.77
64858;SHT30;51335;51.148;6.950;2023-04-03T03:00:29;-0.57;96.68
64858;SHT30;51335;51.148;6.950;2023-04-03T03:00:59;-0.57;96.65
64858;SHT30;51335;51.148;6.950;2023-04-03T03:01:30;-0.59;96.72
64858;SHT30;51335;51.148;6.950;2023-04-03T03:02:00;-0.57;96.62
64858;SHT30;51335;51.148;6.950;2023-04-03T03:02:31;-0.56;96.60
64858;SHT30;51335;51.148;6.950;2023-04-03T03:03:01;-0.59;96.56
64858;SHT30;51335;51.148;6.950;2023-04-03T03:03:31;-0.60;96.57
64858;SHT30;51335;51.148;6.950;2023-04-03T03:04:02;-0.56;96.50
64858;SHT30;51335;51.148;6.950;2023-04-03T03:04:32;-0.46;96.37
64858;SHT30;51335;51.148;6.950;2023-04-03T03:05:02;-0.50;96.32
64858;SHT30;51335;51.148;6.950;2023-04-03T03:05:33;-0.45;96.19
64858;SHT30;51335;51.148;6.950;2023-04-03T03:06:09;-0.40;96.09
64858;SHT30;51335;51.148;6.950;2023-04-03T03:06:39;-0.36;95.98
64858;SHT30;51335;51.148;6.950;2023-04-03T03:07:10;-0.36;95.93
64858;SHT30;51335;51.148;6.950;2023-04-03T03:07:40;-0.33;95.88
64858;SHT30;51335;51.148;6.950;2023-04-03T03:08:10;-0.26;95.72
64858;SHT30;51335;51.148;6.950;2023-04-03T03:08:41;-0.23;95.50
64858;SHT30;51335;51.148;6.950;2023-04-03T03:09:11;-0.18;95.29
64858;SHT30;51335;51.148;6.950;2023-04-03T03:09:41;-0.14;95.05
64858;SHT30;51335;51.148;6.950;2023-04-03T03:10:11;-0.15;94.94
64858;SHT30;51335;51.148;6.950;2023-04-03T03:10:42;-0.09;94.78
64858;SHT30;51335;51.148;6.950;2023-04-03T03:11:12;-0.11;94.67
64858;SHT30;51335;51.148;6.950;2023-04-03T03:11:42;-0.05;94.51
64858;SHT30;51335;51.148;6.950;2023-04-03T03:12:12;-0.14;94.45
64858;SHT30;51335;51.148;6.950;2023-04-03T03:12:43;-0.22;94.69
64858;SHT30;51335;51.148;6.950;2023-04-03T03:13:13;-0.30;94.86
64858;SHT30;51335;51.148;6.950;2023-04-03T03:13:43;-0.25;94.94
64858;SHT30;51335;51.148;6.950;2023-04-03T03:14:14;-0.16;94.81
64858;SHT30;51335;51.148;6.950;2023-04-03T03:14:44;-0.16;94.74
64858;SHT30;51335;51.148;6.950;2023-04-03T03:15:14;-0.05;94.52
64858;SHT30;51335;51.148;6.950;2023-04-03T03:15:45;-0.02;94.22
64858;SHT30;51335;51.148;6.950;2023-04-03T03:16:15;-0.02;94.18
64858;SHT30;51335;51.148;6.950;2023-04-03T03:16:45;-0.02;94.15
64858;SHT30;51335;51.148;6.950;2023-04-03T03:17:16;0.06;93.91
64858;SHT30;51335;51.148;6.950;2023-04-03T03:17:46;0.09;93.55
64858;SHT30;51335;51.148;6.950;2023-04-03T03:18:16;0.12;93.40
64858;SHT30;51335;51.148;6.950;2023-04-03T03:18:46;0.14;93.19
64858;SHT30;51335;51.148;6.950;2023-04-03T03:19:17;0.13;93.07
64858;SHT30;51335;51.148;6.950;2023-04-03T03:19:47;0.13;93.06
64858;SHT30;51335;51.148;6.950;2023-04-03T03:20:17;0.19;92.91
64858;SHT30;51335;51.148;6.950;2023-04-03T03:20:58;0.24;92.78
64858;SHT30;51335;51.148;6.950;2023-04-03T03:21:29;0.30;92.48
64858;SHT30;51335;51.148;6.950;2023-04-03T03:21:59;0.33;92.27
64858;SHT30;51335;51.148;6.950;2023-04-03T03:22:29;0.37;91.99
64858;SHT30;51335;51.148;6.950;2023-04-03T03:23:00;0.37;91.99
64858;SHT30;51335;51.148;6.950;2023-04-03T03:23:31;0.39;91.87
64858;SHT30;51335;51.148;6.950;2023-04-03T03:24:01;0.39;91.70
64858;SHT30;51335;51.148;6.950;2023-04-03T03:24:32;0.43;91.56